sensor_id;sensor_type;location;lat;lon;timestamp;P1;durP1;ratioP1;P2;durP2;ratioP2
76296;SDS011;65104;52.994;6.552;2023-08-31T00:02:12;3.40;;;1.55;;
76296;SDS011;65104;52.994;6.552;2023-08-31T00:04:37;2.97;;;1.60;;
76296;SDS011;65104;52.994;6.552;2023-08-31T00:07:03;1.85;;;1.50;;
76296;SDS011;65104;52.994;6.552;2023-08-31T00:09:28;4.28;;;1.52;;
76296;SDS011;65104;52.994;6.552;2023-08-31T00:11:57;2.70;;;1.70;;
76296;SDS011;65104;52.994;6.552;2023-08-31T00:14:23;2.92;;;1.73;;
76296;SDS011;65104;52.994;6.552;2023-08-31T00:16:49;1.45;;;1.35;;
76296;SDS011;65104;52.994;6.552;2023-08-31T00:19:15;2.13;;;1.23;;
76296;SDS011;65104;52.994;6.552;2023-08-31T00:21:41;1.80;;;1.13;;
76296;SDS011;65104;52.994;6.552;2023-08-31T00:24:07;4.60;;;1.20;;
76296;SDS011;65104;52.994;6.552;2023-08-31T00:26:33;4.75;;;1.40;;
76296;SDS011;65104;52.994;6.552;2023-08-31T00:28:58;2.80;;;1.10;;
76296;SDS011;65104;52.994;6.552;2023-08-31T00:31:24;1.55;;;1.27;;
76296;SDS011;65104;52.994;6.552;2023-08-31T00:33:49;1.35;;;1.20;;
76296;SDS011;65104;52.994;6.552;2023-08-31T00:36:15;1.45;;;1.02;;
76296;SDS011;65104;52.994;6.552;2023-08-31T00:38:41;1.80;;;1.20;;
76296;SDS011;65104;52.994;6.552;2023-08-31T00:41:07;1.73;;;1.23;;
76296;SDS011;65104;52.994;6.552;2023-08-31T00:43:32;2.10;;;1.40;;
76296;SDS011;65104;52.994;6.552;2023-08-31T00:45:58;1.35;;;1.00;;
76296;SDS011;65104;52.994;6.552;2023-08-31T00:48:24;2.05;;;0.80;;
76296;SDS011;65104;52.994;6.552;2023-08-31T00:50:50;3.95;;;1.20;;
76296;SDS011;65104;52.994;6.552;2023-08-31T00:53:16;1.77;;;1.00;;
76296;SDS011;65104;52.994;6.552;2023-08-31T00:55:45;4.85;;;1.50;;
76296;SDS011;65104;52.994;6.552;2023-08-31T00:58:11;0.88;;;0.70;;
76296;SDS011;65104;52.994;6.552;2023-08-31T01:08:50;1.35;;;1.02;;
76296;SDS011;65104;52.994;6.552;2023-08-31T01:11:24;3.28;;;0.98;;
76296;SDS011;65104;52.994;6.552;2023-08-31T01:14:12;1.83;;;0.55;;
76296;SDS011;65104;52.994;6.552;2023-08-31T01:16:45;1.10;;;0.60;;
76296;SDS011;65104;52.994;6.552;2023-08-31T01:22:03;2.88;;;0.60;;
76296;SDS011;65104;52.994;6.552;2023-08-31T01:24:32;2.67;;;0.70;;
76296;SDS011;65104;52.994;6.552;2023-08-31T01:26:59;0.80;;;0.60;;
76296;SDS011;65104;52.994;6.552;2023-08-31T01:29:24;0.85;;;0.70;;
76296;SDS011;65104;52.994;6.552;2023-08-31T01:31:51;1.15;;;0.50;;
76296;SDS011;65104;52.994;6.552;2023-08-31T01:34:16;2.90;;;1.17;;
76296;SDS011;65104;52.994;6.552;2023-08-31T01:36:42;1.45;;;0.70;;
76296;SDS011;65104;52.994;6.552;2023-08-31T01:39:17;1.58;;;0.68;;
76296;SDS011;65104;52.994;6.552;2023-08-31T01:41:46;0.95;;;0.73;;
76296;SDS011;65104;52.994;6.552;2023-08-31T01:44:16;1.58;;;0.80;;
76296;SDS011;65104;52.994;6.552;2023-08-31T01:46:46;1.00;;;0.73;;
76296;SDS011;65104;52.994;6.552;2023-08-31T01:49:12;2.22;;;0.90;;
76296;SDS011;65104;52.994;6.552;2023-08-31T01:51:39;1.10;;;0.90;;
76296;SDS011;65104;52.994;6.552;2023-08-31T01:54:04;0.82;;;0.68;;
76296;SDS011;65104;52.994;6.552;2023-08-31T01:56:30;0.95;;;0.60;;
76296;SDS011;65104;52.994;6.552;2023-08-31T01:58:55;0.65;;;0.60;;
76296;SDS011;65104;52.994;6.552;2023-08-31T02:01:21;0.70;;;0.50;;
76296;SDS011;65104;52.994;6.552;2023-08-31T02:03:46;1.70;;;0.90;;
76296;SDS011;65104;52.994;6.552;2023-08-31T02:06:12;1.60;;;0.73;;
76296;SDS011;65104;52.994;6.552;2023-08-31T02:08:37;0.55;;;0.55;;
76296;SDS011;65104;52.994;6.552;2023-08-31T02:11:02;1.10;;;0.85;;
76296;SDS011;65104;52.994;6.552;2023-08-31T02:13:28;0.65;;;0.65;;
76296;SDS011;65104;52.994;6.552;2023-08-31T02:15:54;1.33;;;0.60;;
76296;SDS011;65104;52.994;6.552;2023-08-31T02:18:20;1.63;;;0.80;;
76296;SDS011;65104;52.994;6.552;2023-08-31T02:20:45;0.50;;;0.40;;
76296;SDS011;65104;52.994;6.552;2023-08-31T02:23:11;1.67;;;0.80;;
76296;SDS011;65104;52.994;6.552;2023-08-31T02:25:37;0.80;;;0.60;;
76296;SDS011;65104;52.994;6.552;2023-08-31T02:28:02;1.35;;;0.70;;
76296;SDS011;65104;52.994;6.552;2023-08-31T02:30:28;0.60;;;0.60;;
76296;SDS011;65104;52.994;6.552;2023-08-31T02:32:53;4.38;;;1.48;;
76296;SDS011;65104;52.994;6.552;2023-08-31T02:35:21;1.98;;;0.57;;
76296;SDS011;65104;52.994;6.552;2023-08-31T02:37:47;1.35;;;0.57;;
76296;SDS011;65104;52.994;6.552;2023-08-31T02:40:13;2.42;;;0.80;;
76296;SDS011;65104;52.994;6.552;2023-08-31T02:42:39;1.23;;;0.80;;
76296;SDS011;65104;52.994;6.552;2023-08-31T02:45:04;1.80;;;0.80;;
76296;SDS011;65104;52.994;6.552;2023-08-31T02:47:30;1.85;;;1.15;;
76296;SDS011;65104;52.994;6.552;2023-08-31T02:49:55;2.28;;;0.95;;
76296;SDS011;65104;52.994;6.552;2023-08-31T02:52:21;2.08;;;1.17;;
76296;SDS011;65104;52.994;6.552;2023-08-31T02:54:46;3.17;;;1.35;;
76296;SDS011;65104;52.994;6.552;2023-08-31T02:57:12;1.83;;;1.23;;
76296;SDS011;65104;52.994;6.552;2023-08-31T02:59:37;3.10;;;1.48;;
76296;SDS011;65104;52.994;6.552;2023-08-31T03:02:03;3.17;;;1.58;;
76296;SDS011;65104;52.994;6.552;2023-08-31T03:04:29;2.53;;;1.00;;
76296;SDS011;65104;52.994;6.552;2023-08-31T03:06:54;1.33;;;1.17;;
76296;SDS011;65104;52.994;6.552;2023-08-31T03:09:20;2.13;;;1.50;;
76296;SDS011;65104;52.994;6.552;2023-08-31T03:11:45;1.58;;;1.48;;
76296;SDS011;65104;52.994;6.552;2023-08-31T03:14:11;2.70;;;1.38;;
76296;SDS011;65104;52.994;6.552;2023-08-31T03:16:36;2.75;;;1.98;;
76296;SDS011;65104;52.994;6.552;2023-08-31T03:19:01;4.90;;;2.03;;
76296;SDS011;65104;52.994;6.552;2023-08-31T03:21:27;2.10;;;1.63;;
76296;SDS011;65104;52.994;6.552;2023-08-31T03:23:52;3.13;;;2.22;;
76296;SDS011;65104;52.994;6.552;2023-08-31T03:26:18;4.05;;;1.48;;
76296;SDS011;65104;52.994;6.552;2023-08-31T03:28:43;1.55;;;1.40;;
76296;SDS011;65104;52.994;6.552;2023-08-31T03:31:08;2.55;;;1.35;;
76296;SDS011;65104;52.994;6.552;2023-08-31T03:33:34;4.00;;;1.80;;
76296;SDS011;65104;52.994;6.552;2023-08-31T03:36:00;2.33;;;1.67;;
76296;SDS011;65104;52.994;6.552;2023-08-31T03:38:26;2.80;;;1.52;;
76296;SDS011;65104;52.994;6.552;2023-08-31T03:40:53;2.97;;;1.45;;
76296;SDS011;65104;52.994;6.552;2023-08-31T03:45:45;3.73;;;2.27;;
76296;SDS011;65104;52.994;6.552;2023-08-31T03:48:10;3.13;;;1.90;;
76296;SDS011;65104;52.994;6.552;2023-08-31T03:50:36;3.03;;;2.05;;
76296;SDS011;65104;52.994;6.552;2023-08-31T03:53:02;3.72;;;1.77;;
76296;SDS011;65104;52.994;6.552;2023-08-31T03:55:28;4.60;;;2.60;;
76296;SDS011;65104;52.994;6.552;2023-08-31T03:57:53;4.00;;;2.67;;
76296;SDS011;65104;52.994;6.552;2023-08-31T04:00:19;3.90;;;2.75;;
76296;SDS011;65104;52.994;6.552;2023-08-31T04:02:45;3.03;;;2.58;;
76296;SDS011;65104;52.994;6.552;2023-08-31T04:05:10;7.65;;;3.38;;
76296;SDS011;65104;52.994;6.552;2023-08-31T04:07:35;4.72;;;3.33;;
76296;SDS011;65104;52.994;6.552;2023-08-31T04:10:01;5.40;;;3.75;;
76296;SDS011;65104;52.994;6.552;2023-08-31T04:12:28;5.90;;;4.28;;
76296;SDS011;65104;52.994;6.552;2023-08-31T04:14:55;6.22;;;4.32;;
76296;SDS011;65104;52.994;6.552;2023-08-31T04:17:20;5.03;;;4.03;;
76296;SDS011;65104;52.994;6.552;2023-08-31T04:19:46;5.30;;;3.65;;
76296;SDS011;65104;52.994;6.552;2023-08-31T04:22:11;4.90;;;4.05;;
76296;SDS011;65104;52.994;6.552;2023-08-31T04:24:37;5.90;;;4.72;;
76296;SDS011;65104;52.994;6.552;2023-08-31T04:27:02;5.20;;;3.72;;
76296;SDS011;65104;52.994;6.552;2023-08-31T04:29:28;7.38;;;5.10;;
76296;SDS011;65104;52.994;6.552;2023-08-31T04:31:53;5.20;;;4.50;;
76296;SDS011;65104;52.994;6.552;2023-08-31T04:34:19;6.82;;;4.70;;
76296;SDS011;65104;52.994;6.552;2023-08-31T04:36:44;9.35;;;5.18;;
76296;SDS011;65104;52.994;6.552;2023-08-31T04:39:10;6.22;;;4.90;;
76296;SDS011;65104;52.994;6.552;2023-08-31T04:41:36;6.57;;;4.50;;
76296;SDS011;65104;52.994;6.552;2023-08-31T04:44:01;6.68;;;5.63;;
76296;SDS011;65104;52.994;6.552;2023-08-31T04:46:26;8.10;;;5.43;;
76296;SDS011;65104;52.994;6.552;2023-08-31T04:48:52;8.60;;;5.18;;
76296;SDS011;65104;52.994;6.552;2023-08-31T04:51:27;5.90;;;5.13;;
76296;SDS011;65104;52.994;6.552;2023-08-31T04:53:53;6.85;;;5.03;;
76296;SDS011;65104;52.994;6.552;2023-08-31T04:56:18;7.25;;;4.93;;
76296;SDS011;65104;52.994;6.552;2023-08-31T04:58:44;7.55;;;5.63;;
76296;SDS011;65104;52.994;6.552;2023-08-31T05:01:09;8.15;;;5.50;;
76296;SDS011;65104;52.994;6.552;2023-08-31T05:03:34;8.70;;;5.53;;
76296;SDS011;65104;52.994;6.552;2023-08-31T05:06:00;8.02;;;5.55;;
76296;SDS011;65104;52.994;6.552;2023-08-31T05:08:25;8.90;;;6.30;;
76296;SDS011;65104;52.994;6.552;2023-08-31T05:10:51;8.23;;;5.32;;
76296;SDS011;65104;52.994;6.552;2023-08-31T05:13:16;10.65;;;5.35;;
76296;SDS011;65104;52.994;6.552;2023-08-31T05:15:41;7.10;;;5.22;;
76296;SDS011;65104;52.994;6.552;2023-08-31T05:18:07;7.03;;;5.43;;
76296;SDS011;65104;52.994;6.552;2023-08-31T05:20:33;8.05;;;5.28;;
76296;SDS011;65104;52.994;6.552;2023-08-31T05:22:59;9.10;;;5.68;;
76296;SDS011;65104;52.994;6.552;2023-08-31T05:25:24;7.47;;;4.85;;
76296;SDS011;65104;52.994;6.552;2023-08-31T05:27:49;8.30;;;4.40;;
76296;SDS011;65104;52.994;6.552;2023-08-31T05:30:15;7.47;;;5.18;;
76296;SDS011;65104;52.994;6.552;2023-08-31T05:32:40;6.88;;;4.53;;
76296;SDS011;65104;52.994;6.552;2023-08-31T05:35:06;6.03;;;4.63;;
76296;SDS011;65104;52.994;6.552;2023-08-31T05:37:32;7.90;;;4.57;;
76296;SDS011;65104;52.994;6.552;2023-08-31T05:39:59;6.72;;;4.43;;
76296;SDS011;65104;52.994;6.552;2023-08-31T05:42:25;7.10;;;4.82;;
76296;SDS011;65104;52.994;6.552;2023-08-31T05:44:51;8.05;;;3.80;;
76296;SDS011;65104;52.994;6.552;2023-08-31T05:47:17;7.70;;;4.30;;
76296;SDS011;65104;52.994;6.552;2023-08-31T05:49:42;8.27;;;4.60;;
76296;SDS011;65104;52.994;6.552;2023-08-31T05:52:07;7.30;;;3.92;;
76296;SDS011;65104;52.994;6.552;2023-08-31T05:54:33;8.07;;;4.72;;
76296;SDS011;65104;52.994;6.552;2023-08-31T05:56:59;6.43;;;4.28;;
76296;SDS011;65104;52.994;6.552;2023-08-31T05:59:24;5.70;;;3.92;;
76296;SDS011;65104;52.994;6.552;2023-08-31T06:01:50;6.38;;;3.33;;
76296;SDS011;65104;52.994;6.552;2023-08-31T06:04:15;6.70;;;4.07;;
76296;SDS011;65104;52.994;6.552;2023-08-31T06:06:40;6.75;;;3.30;;
76296;SDS011;65104;52.994;6.552;2023-08-31T06:09:06;5.32;;;3.25;;
76296;SDS011;65104;52.994;6.552;2023-08-31T06:11:32;5.13;;;3.33;;
76296;SDS011;65104;52.994;6.552;2023-08-31T06:13:57;4.13;;;2.78;;
76296;SDS011;65104;52.994;6.552;2023-08-31T06:16:22;6.00;;;2.97;;
76296;SDS011;65104;52.994;6.552;2023-08-31T06:18:48;5.75;;;2.78;;
76296;SDS011;65104;52.994;6.552;2023-08-31T06:21:14;5.55;;;2.63;;
76296;SDS011;65104;52.994;6.552;2023-08-31T06:23:39;5.82;;;3.20;;
76296;SDS011;65104;52.994;6.552;2023-08-31T06:26:05;5.90;;;2.72;;
76296;SDS011;65104;52.994;6.552;2023-08-31T06:28:30;4.00;;;2.75;;
76296;SDS011;65104;52.994;6.552;2023-08-31T06:30:55;4.78;;;2.75;;
76296;SDS011;65104;52.994;6.552;2023-08-31T06:33:21;5.10;;;2.15;;
76296;SDS011;65104;52.994;6.552;2023-08-31T06:35:46;6.75;;;2.13;;
76296;SDS011;65104;52.994;6.552;2023-08-31T06:38:16;5.43;;;2.38;;
76296;SDS011;65104;52.994;6.552;2023-08-31T06:40:46;2.78;;;1.90;;
76296;SDS011;65104;52.994;6.552;2023-08-31T06:43:11;5.13;;;1.85;;
76296;SDS011;65104;52.994;6.552;2023-08-31T06:45:37;5.07;;;2.30;;
76296;SDS011;65104;52.994;6.552;2023-08-31T06:48:03;1.85;;;1.48;;
76296;SDS011;65104;52.994;6.552;2023-08-31T06:50:29;3.60;;;1.25;;
76296;SDS011;65104;52.994;6.552;2023-08-31T06:52:54;2.60;;;1.50;;
76296;SDS011;65104;52.994;6.552;2023-08-31T06:55:20;3.53;;;1.85;;
76296;SDS011;65104;52.994;6.552;2023-08-31T06:57:45;4.80;;;1.75;;
76296;SDS011;65104;52.994;6.552;2023-08-31T07:00:11;1.80;;;1.27;;
76296;SDS011;65104;52.994;6.552;2023-08-31T07:02:39;3.17;;;1.38;;
76296;SDS011;65104;52.994;6.552;2023-08-31T07:05:06;4.40;;;1.48;;
76296;SDS011;65104;52.994;6.552;2023-08-31T07:07:31;1.05;;;0.90;;
76296;SDS011;65104;52.994;6.552;2023-08-31T07:09:57;2.25;;;1.30;;
76296;SDS011;65104;52.994;6.552;2023-08-31T07:12:22;2.05;;;1.38;;
76296;SDS011;65104;52.994;6.552;2023-08-31T07:14:48;4.75;;;1.33;;
76296;SDS011;65104;52.994;6.552;2023-08-31T07:17:13;2.65;;;1.00;;
76296;SDS011;65104;52.994;6.552;2023-08-31T07:19:43;2.90;;;0.90;;
76296;SDS011;65104;52.994;6.552;2023-08-31T07:22:08;2.22;;;0.80;;
76296;SDS011;65104;52.994;6.552;2023-08-31T07:24:34;4.38;;;1.05;;
76296;SDS011;65104;52.994;6.552;2023-08-31T07:27:00;1.63;;;1.00;;
76296;SDS011;65104;52.994;6.552;2023-08-31T07:29:27;1.60;;;0.80;;
76296;SDS011;65104;52.994;6.552;2023-08-31T07:31:53;1.95;;;0.80;;
76296;SDS011;65104;52.994;6.552;2023-08-31T07:34:18;1.38;;;0.80;;
76296;SDS011;65104;52.994;6.552;2023-08-31T07:36:44;3.00;;;1.00;;
76296;SDS011;65104;52.994;6.552;2023-08-31T07:39:09;2.50;;;0.82;;
76296;SDS011;65104;52.994;6.552;2023-08-31T07:41:35;3.75;;;1.00;;
76296;SDS011;65104;52.994;6.552;2023-08-31T07:44:00;3.38;;;0.90;;
76296;SDS011;65104;52.994;6.552;2023-08-31T07:46:27;2.67;;;0.82;;
76296;SDS011;65104;52.994;6.552;2023-08-31T07:48:53;1.15;;;0.70;;
76296;SDS011;65104;52.994;6.552;2023-08-31T07:51:18;0.98;;;0.73;;
76296;SDS011;65104;52.994;6.552;2023-08-31T07:53:48;0.73;;;0.70;;
76296;SDS011;65104;52.994;6.552;2023-08-31T07:56:16;2.45;;;0.90;;
76296;SDS011;65104;52.994;6.552;2023-08-31T07:58:41;2.45;;;0.55;;
76296;SDS011;65104;52.994;6.552;2023-08-31T08:01:07;1.38;;;0.77;;
76296;SDS011;65104;52.994;6.552;2023-08-31T08:03:32;0.80;;;0.60;;
76296;SDS011;65104;52.994;6.552;2023-08-31T08:05:58;0.88;;;0.68;;
76296;SDS011;65104;52.994;6.552;2023-08-31T08:08:23;1.10;;;0.60;;
76296;SDS011;65104;52.994;6.552;2023-08-31T08:10:52;1.70;;;0.90;;
76296;SDS011;65104;52.994;6.552;2023-08-31T08:13:18;7.95;;;1.75;;
76296;SDS011;65104;52.994;6.552;2023-08-31T08:15:44;2.33;;;0.63;;
76296;SDS011;65104;52.994;6.552;2023-08-31T08:18:10;1.58;;;0.80;;
76296;SDS011;65104;52.994;6.552;2023-08-31T08:20:35;3.97;;;0.75;;
76296;SDS011;65104;52.994;6.552;2023-08-31T08:23:01;5.05;;;1.00;;
76296;SDS011;65104;52.994;6.552;2023-08-31T08:25:26;4.20;;;0.90;;
76296;SDS011;65104;52.994;6.552;2023-08-31T08:27:52;1.20;;;0.90;;
76296;SDS011;65104;52.994;6.552;2023-08-31T08:30:17;0.95;;;0.70;;
76296;SDS011;65104;52.994;6.552;2023-08-31T08:32:43;1.08;;;0.70;;
76296;SDS011;65104;52.994;6.552;2023-08-31T08:35:09;0.45;;;0.43;;
76296;SDS011;65104;52.994;6.552;2023-08-31T08:37:34;3.70;;;1.38;;
76296;SDS011;65104;52.994;6.552;2023-08-31T08:40:00;2.03;;;0.75;;
76296;SDS011;65104;52.994;6.552;2023-08-31T08:42:26;1.88;;;0.73;;
76296;SDS011;65104;52.994;6.552;2023-08-31T08:44:56;2.70;;;0.80;;
76296;SDS011;65104;52.994;6.552;2023-08-31T08:47:22;7.25;;;1.10;;
76296;SDS011;65104;52.994;6.552;2023-08-31T08:49:47;2.80;;;0.60;;
76296;SDS011;65104;52.994;6.552;2023-08-31T08:52:13;1.10;;;0.57;;
76296;SDS011;65104;52.994;6.552;2023-08-31T08:54:40;1.42;;;0.50;;
76296;SDS011;65104;52.994;6.552;2023-08-31T08:57:05;0.95;;;0.30;;
76296;SDS011;65104;52.994;6.552;2023-08-31T08:59:31;0.65;;;0.65;;
76296;SDS011;65104;52.994;6.552;2023-08-31T09:01:57;1.77;;;0.22;;
76296;SDS011;65104;52.994;6.552;2023-08-31T09:04:22;1.55;;;0.45;;
76296;SDS011;65104;52.994;6.552;2023-08-31T09:06:48;1.85;;;0.68;;
76296;SDS011;65104;52.994;6.552;2023-08-31T09:09:15;1.38;;;0.30;;
76296;SDS011;65104;52.994;6.552;2023-08-31T09:11:41;0.80;;;0.32;;
76296;SDS011;65104;52.994;6.552;2023-08-31T09:14:16;0.80;;;0.47;;
76296;SDS011;65104;52.994;6.552;2023-08-31T09:16:46;1.55;;;0.40;;
76296;SDS011;65104;52.994;6.552;2023-08-31T09:19:20;1.15;;;0.43;;
76296;SDS011;65104;52.994;6.552;2023-08-31T09:21:50;0.95;;;0.50;;
76296;SDS011;65104;52.994;6.552;2023-08-31T09:24:16;1.50;;;0.60;;
76296;SDS011;65104;52.994;6.552;2023-08-31T09:26:46;0.95;;;0.22;;
76296;SDS011;65104;52.994;6.552;2023-08-31T09:29:13;1.23;;;0.40;;
76296;SDS011;65104;52.994;6.552;2023-08-31T09:31:41;1.48;;;0.50;;
76296;SDS011;65104;52.994;6.552;2023-08-31T09:34:10;2.30;;;0.60;;
76296;SDS011;65104;52.994;6.552;2023-08-31T09:36:36;0.50;;;0.30;;
76296;SDS011;65104;52.994;6.552;2023-08-31T09:39:03;1.27;;;0.55;;
76296;SDS011;65104;52.994;6.552;2023-08-31T09:41:30;0.30;;;0.30;;
76296;SDS011;65104;52.994;6.552;2023-08-31T09:43:55;0.90;;;0.57;;
76296;SDS011;65104;52.994;6.552;2023-08-31T09:46:21;1.17;;;0.77;;
76296;SDS011;65104;52.994;6.552;2023-08-31T09:48:47;0.60;;;0.40;;
76296;SDS011;65104;52.994;6.552;2023-08-31T09:51:14;2.42;;;1.05;;
76296;SDS011;65104;52.994;6.552;2023-08-31T09:53:42;0.60;;;0.60;;
76296;SDS011;65104;52.994;6.552;2023-08-31T09:56:11;1.83;;;1.00;;
76296;SDS011;65104;52.994;6.552;2023-08-31T09:58:42;2.60;;;0.93;;
76296;SDS011;65104;52.994;6.552;2023-08-31T10:01:08;1.42;;;0.80;;
76296;SDS011;65104;52.994;6.552;2023-08-31T10:03:34;1.05;;;0.60;;
76296;SDS011;65104;52.994;6.552;2023-08-31T10:05:59;2.03;;;0.73;;
76296;SDS011;65104;52.994;6.552;2023-08-31T10:08:26;1.08;;;0.50;;
76296;SDS011;65104;52.994;6.552;2023-08-31T10:10:56;1.45;;;0.60;;
76296;SDS011;65104;52.994;6.552;2023-08-31T10:13:28;2.58;;;0.63;;
76296;SDS011;65104;52.994;6.552;2023-08-31T10:16:00;2.80;;;0.60;;
76296;SDS011;65104;52.994;6.552;2023-08-31T10:18:28;0.65;;;0.65;;
76296;SDS011;65104;52.994;6.552;2023-08-31T10:20:54;1.98;;;0.50;;
76296;SDS011;65104;52.994;6.552;2023-08-31T10:23:20;1.35;;;0.50;;
76296;SDS011;65104;52.994;6.552;2023-08-31T10:28:21;1.07;;;0.30;;
76296;SDS011;65104;52.994;6.552;2023-08-31T10:31:03;0.68;;;0.28;;
76296;SDS011;65104;52.994;6.552;2023-08-31T10:33:39;1.40;;;0.52;;
76296;SDS011;65104;52.994;6.552;2023-08-31T10:36:10;0.93;;;0.30;;
76296;SDS011;65104;52.994;6.552;2023-08-31T10:38:39;1.15;;;0.30;;
76296;SDS011;65104;52.994;6.552;2023-08-31T10:43:51;0.93;;;0.37;;
76296;SDS011;65104;52.994;6.552;2023-08-31T10:49:18;1.55;;;0.70;;
76296;SDS011;65104;52.994;6.552;2023-08-31T10:51:48;1.40;;;0.47;;
76296;SDS011;65104;52.994;6.552;2023-08-31T10:56:53;1.00;;;0.50;;
76296;SDS011;65104;52.994;6.552;2023-08-31T11:07:35;1.27;;;0.40;;
76296;SDS011;65104;52.994;6.552;2023-08-31T11:10:08;3.08;;;0.50;;
76296;SDS011;65104;52.994;6.552;2023-08-31T11:12:40;0.50;;;0.20;;
76296;SDS011;65104;52.994;6.552;2023-08-31T11:15:07;2.45;;;0.57;;
76296;SDS011;65104;52.994;6.552;2023-08-31T11:17:33;1.02;;;0.20;;
76296;SDS011;65104;52.994;6.552;2023-08-31T11:19:59;1.80;;;0.32;;
76296;SDS011;65104;52.994;6.552;2023-08-31T11:22:25;2.38;;;0.40;;
76296;SDS011;65104;52.994;6.552;2023-08-31T11:24:51;2.42;;;0.68;;
76296;SDS011;65104;52.994;6.552;2023-08-31T11:27:20;1.98;;;0.75;;
76296;SDS011;65104;52.994;6.552;2023-08-31T11:29:46;1.60;;;0.57;;
76296;SDS011;65104;52.994;6.552;2023-08-31T11:32:11;1.90;;;0.20;;
76296;SDS011;65104;52.994;6.552;2023-08-31T11:34:43;0.95;;;0.40;;
76296;SDS011;65104;52.994;6.552;2023-08-31T11:37:13;0.63;;;0.30;;
76296;SDS011;65104;52.994;6.552;2023-08-31T11:39:51;0.47;;;0.32;;
76296;SDS011;65104;52.994;6.552;2023-08-31T11:42:17;0.45;;;0.32;;
76296;SDS011;65104;52.994;6.552;2023-08-31T11:44:45;0.80;;;0.17;;
76296;SDS011;65104;52.994;6.552;2023-08-31T11:47:13;0.85;;;0.40;;
76296;SDS011;65104;52.994;6.552;2023-08-31T11:49:40;0.90;;;0.40;;
76296;SDS011;65104;52.994;6.552;2023-08-31T11:52:08;0.93;;;0.25;;
76296;SDS011;65104;52.994;6.552;2023-08-31T11:54:37;1.27;;;0.30;;
76296;SDS011;65104;52.994;6.552;2023-08-31T11:57:07;1.08;;;0.20;;
76296;SDS011;65104;52.994;6.552;2023-08-31T11:59:36;1.05;;;0.35;;
76296;SDS011;65104;52.994;6.552;2023-08-31T12:02:06;1.50;;;0.40;;
76296;SDS011;65104;52.994;6.552;2023-08-31T12:04:33;1.27;;;0.30;;
76296;SDS011;65104;52.994;6.552;2023-08-31T12:07:07;1.65;;;0.30;;
76296;SDS011;65104;52.994;6.552;2023-08-31T12:09:33;1.15;;;0.30;;
76296;SDS011;65104;52.994;6.552;2023-08-31T12:11:58;0.30;;;0.20;;
76296;SDS011;65104;52.994;6.552;2023-08-31T12:14:25;1.60;;;0.30;;
76296;SDS011;65104;52.994;6.552;2023-08-31T12:16:53;1.27;;;0.30;;
76296;SDS011;65104;52.994;6.552;2023-08-31T12:19:28;0.30;;;0.30;;
76296;SDS011;65104;52.994;6.552;2023-08-31T12:21:55;5.55;;;0.57;;
76296;SDS011;65104;52.994;6.552;2023-08-31T12:24:21;1.10;;;0.40;;
76296;SDS011;65104;52.994;6.552;2023-08-31T12:26:48;1.20;;;0.40;;
76296;SDS011;65104;52.994;6.552;2023-08-31T12:29:13;1.27;;;0.38;;
76296;SDS011;65104;52.994;6.552;2023-08-31T12:31:38;1.15;;;0.60;;
76296;SDS011;65104;52.994;6.552;2023-08-31T12:34:04;4.18;;;1.15;;
76296;SDS011;65104;52.994;6.552;2023-08-31T12:36:31;2.88;;;1.10;;
76296;SDS011;65104;52.994;6.552;2023-08-31T12:39:02;2.78;;;0.57;;
76296;SDS011;65104;52.994;6.552;2023-08-31T12:41:37;1.85;;;0.60;;
76296;SDS011;65104;52.994;6.552;2023-08-31T12:44:03;1.40;;;1.17;;
76296;SDS011;65104;52.994;6.552;2023-08-31T12:46:29;2.30;;;0.60;;
76296;SDS011;65104;52.994;6.552;2023-08-31T12:48:54;1.50;;;0.40;;
76296;SDS011;65104;52.994;6.552;2023-08-31T12:51:20;2.53;;;0.50;;
76296;SDS011;65104;52.994;6.552;2023-08-31T12:53:46;1.63;;;0.60;;
76296;SDS011;65104;52.994;6.552;2023-08-31T12:56:12;0.90;;;0.45;;
76296;SDS011;65104;52.994;6.552;2023-08-31T12:58:37;1.05;;;0.70;;
76296;SDS011;65104;52.994;6.552;2023-08-31T13:01:03;0.95;;;0.55;;
76296;SDS011;65104;52.994;6.552;2023-08-31T13:03:29;2.70;;;0.77;;
76296;SDS011;65104;52.994;6.552;2023-08-31T13:05:54;1.13;;;0.70;;
76296;SDS011;65104;52.994;6.552;2023-08-31T13:08:20;0.77;;;0.75;;
76296;SDS011;65104;52.994;6.552;2023-08-31T13:10:52;2.03;;;0.60;;
76296;SDS011;65104;52.994;6.552;2023-08-31T13:13:18;0.80;;;0.45;;
76296;SDS011;65104;52.994;6.552;2023-08-31T13:15:45;1.63;;;0.63;;
76296;SDS011;65104;52.994;6.552;2023-08-31T13:18:14;2.83;;;0.60;;
76296;SDS011;65104;52.994;6.552;2023-08-31T13:20:39;3.05;;;0.95;;
76296;SDS011;65104;52.994;6.552;2023-08-31T13:23:05;1.98;;;1.23;;
76296;SDS011;65104;52.994;6.552;2023-08-31T13:25:32;1.58;;;0.30;;
76296;SDS011;65104;52.994;6.552;2023-08-31T13:27:57;1.63;;;0.70;;
76296;SDS011;65104;52.994;6.552;2023-08-31T13:30:23;0.82;;;0.60;;
76296;SDS011;65104;52.994;6.552;2023-08-31T13:32:48;1.00;;;0.52;;
76296;SDS011;65104;52.994;6.552;2023-08-31T13:35:14;0.95;;;0.47;;
76296;SDS011;65104;52.994;6.552;2023-08-31T13:37:39;1.75;;;1.20;;
76296;SDS011;65104;52.994;6.552;2023-08-31T13:40:05;1.52;;;0.68;;
76296;SDS011;65104;52.994;6.552;2023-08-31T13:42:36;1.02;;;0.45;;
76296;SDS011;65104;52.994;6.552;2023-08-31T13:45:06;1.83;;;0.57;;
76296;SDS011;65104;52.994;6.552;2023-08-31T13:47:32;1.05;;;0.50;;
76296;SDS011;65104;52.994;6.552;2023-08-31T13:49:57;1.48;;;0.35;;
76296;SDS011;65104;52.994;6.552;2023-08-31T13:52:22;1.40;;;0.60;;
76296;SDS011;65104;52.994;6.552;2023-08-31T13:54:48;1.98;;;0.40;;
76296;SDS011;65104;52.994;6.552;2023-08-31T13:57:13;2.35;;;0.52;;
76296;SDS011;65104;52.994;6.552;2023-08-31T13:59:42;1.83;;;0.90;;
76296;SDS011;65104;52.994;6.552;2023-08-31T14:02:08;1.23;;;0.63;;
76296;SDS011;65104;52.994;6.552;2023-08-31T14:04:33;1.73;;;0.70;;
76296;SDS011;65104;52.994;6.552;2023-08-31T14:06:58;1.25;;;0.50;;
76296;SDS011;65104;52.994;6.552;2023-08-31T14:09:24;2.88;;;0.52;;
76296;SDS011;65104;52.994;6.552;2023-08-31T14:11:49;3.40;;;0.52;;
76296;SDS011;65104;52.994;6.552;2023-08-31T14:14:15;2.60;;;0.57;;
76296;SDS011;65104;52.994;6.552;2023-08-31T14:16:40;0.73;;;0.40;;
76296;SDS011;65104;52.994;6.552;2023-08-31T14:19:05;3.40;;;1.15;;
76296;SDS011;65104;52.994;6.552;2023-08-31T14:21:31;2.25;;;0.40;;
76296;SDS011;65104;52.994;6.552;2023-08-31T14:23:56;2.83;;;0.80;;
76296;SDS011;65104;52.994;6.552;2023-08-31T14:26:22;2.72;;;0.50;;
76296;SDS011;65104;52.994;6.552;2023-08-31T14:28:49;2.15;;;0.65;;
76296;SDS011;65104;52.994;6.552;2023-08-31T14:31:15;2.28;;;0.80;;
76296;SDS011;65104;52.994;6.552;2023-08-31T14:33:41;2.20;;;0.70;;
76296;SDS011;65104;52.994;6.552;2023-08-31T14:36:06;2.35;;;0.50;;
76296;SDS011;65104;52.994;6.552;2023-08-31T14:38:31;3.08;;;0.70;;
76296;SDS011;65104;52.994;6.552;2023-08-31T14:40:57;0.93;;;0.50;;
76296;SDS011;65104;52.994;6.552;2023-08-31T14:43:22;4.20;;;1.08;;
76296;SDS011;65104;52.994;6.552;2023-08-31T14:45:49;1.50;;;0.70;;
76296;SDS011;65104;52.994;6.552;2023-08-31T14:48:14;2.35;;;0.70;;
76296;SDS011;65104;52.994;6.552;2023-08-31T14:50:41;3.47;;;0.90;;
76296;SDS011;65104;52.994;6.552;2023-08-31T14:53:07;1.70;;;0.73;;
76296;SDS011;65104;52.994;6.552;2023-08-31T14:55:33;2.78;;;0.88;;
76296;SDS011;65104;52.994;6.552;2023-08-31T14:57:58;4.10;;;0.60;;
76296;SDS011;65104;52.994;6.552;2023-08-31T15:00:23;0.80;;;0.40;;
76296;SDS011;65104;52.994;6.552;2023-08-31T15:02:49;0.40;;;0.40;;
76296;SDS011;65104;52.994;6.552;2023-08-31T15:05:14;1.23;;;0.40;;
76296;SDS011;65104;52.994;6.552;2023-08-31T15:07:40;2.03;;;0.55;;
76296;SDS011;65104;52.994;6.552;2023-08-31T15:10:05;3.30;;;1.08;;
76296;SDS011;65104;52.994;6.552;2023-08-31T15:12:31;1.15;;;0.40;;
76296;SDS011;65104;52.994;6.552;2023-08-31T15:17:23;1.97;;;0.70;;
76296;SDS011;65104;52.994;6.552;2023-08-31T15:19:50;1.85;;;0.52;;